Time;durP1;ratioP1;P1;durP2;ratioP2;P2;SDS_P1;SDS_P2;PMS_P1;PMS_P2;Temp;Humidity;BMP_temperature;BMP_pressure;BME280_temperature;BME280_humidity;BME280_pressure;Samples;Min_cycle;Max_cycle;Signal;HPM_P1;HPM_P2
2022/01/02 00:00:40;;;;;;;16.73;3.00;;;;;;;-149.78;100.00;50491.00;5113597;28;20054;-67
2022/01/02 00:03:07;;;;;;;18.23;3.28;;;;;;;-149.78;100.00;50479.28;5113407;28;20035;-67
2022/01/02 00:05:37;;;;;;;18.70;3.15;;;;;;;-149.78;100.00;50457.75;5113635;28;20551;-67
2022/01/02 00:08:08;;;;;;;21.70;3.40;;;;;;;-149.78;100.00;50473.41;5113516;28;20034;-67
2022/01/02 00:10:39;;;;;;;20.40;2.88;;;;;;;-149.78;100.00;50459.72;5095455;28;20043;-67
2022/01/02 00:13:06;;;;;;;15.75;2.50;;;;;;;-149.78;100.00;50447.97;5117440;28;20038;-67
2022/01/02 00:15:32;;;;;;;15.40;2.70;;;;;;;-149.78;100.00;50467.53;5117494;28;20387;-67
2022/01/02 00:18:06;;;;;;;21.20;3.22;;;;;;;-149.78;100.00;50475.34;5099517;28;20028;-67
2022/01/02 00:20:32;;;;;;;26.98;2.78;;;;;;;-149.78;100.00;50440.16;5117655;28;20035;-68
2022/01/02 00:23:05;;;;;;;18.55;2.92;;;;;;;-149.78;100.00;50457.75;5117402;28;20058;-67
2022/01/02 00:25:39;;;;;;;19.50;2.67;;;;;;;-149.78;100.00;50510.56;5117517;28;20020;-64
2022/01/02 00:28:11;;;;;;;17.50;3.22;;;;;;;-149.78;100.00;50463.63;5117438;28;20409;-64
2022/01/02 00:30:37;;;;;;;16.73;2.95;;;;;;;-149.78;100.00;50455.81;5117357;28;20046;-64
2022/01/02 00:33:03;;;;;;;18.95;4.07;;;;;;;-149.78;100.00;50432.31;5117251;28;20031;-68
2022/01/02 00:35:29;;;;;;;16.52;3.05;;;;;;;-149.78;100.00;50459.72;5117314;28;20047;-64
2022/01/02 00:37:55;;;;;;;19.27;4.38;;;;;;;-149.78;100.00;50471.44;5117115;28;20062;-64
2022/01/02 00:40:21;;;;;;;19.25;3.28;;;;;;;-149.78;100.00;50494.91;5099256;28;20051;-64
2022/01/02 00:42:55;;;;;;;17.35;2.95;;;;;;;-149.78;100.00;50494.91;5116981;28;20044;-64
2022/01/02 00:45:26;;;;;;;23.77;2.90;;;;;;;-149.78;100.00;50440.16;5117164;28;20046;-64
2022/01/02 00:48:00;;;;;;;25.30;3.25;;;;;;;-149.78;100.00;50467.53;5117151;28;20039;-64
2022/01/02 00:50:26;;;;;;;12.80;2.95;;;;;;;-149.78;100.00;50467.53;5116946;28;20103;-63
2022/01/02 00:52:57;;;;;;;22.15;3.42;;;;;;;-149.78;100.00;50426.47;5117078;28;20453;-64
2022/01/02 00:55:24;;;;;;;27.13;4.13;;;;;;;-149.78;100.00;50487.09;5117031;28;20053;-64
2022/01/02 00:58:25;;;;;;;17.85;2.75;;;;;;;-149.78;100.00;50447.97;5116845;28;20375;-63
2022/01/02 01:00:53;;;;;;;16.10;3.63;;;;;;;-149.78;100.00;50491.00;5112800;28;20043;-64
2022/01/02 01:03:40;;;;;;;25.40;3.42;;;;;;;-149.78;100.00;50463.63;5116670;28;20051;-64
2022/01/02 01:06:10;;;;;;;24.75;3.47;;;;;;;-149.78;100.00;50451.88;5116639;28;20039;-64
2022/01/02 01:08:40;;;;;;;24.40;3.45;;;;;;;-149.78;100.00;50451.88;5116513;28;20084;-64
2022/01/02 01:11:11;;;;;;;23.52;5.32;;;;;;;-149.78;100.00;50467.53;5116554;28;20037;-64
2022/01/02 01:13:37;;;;;;;16.10;4.10;;;;;;;-149.78;100.00;50463.63;5116531;28;20111;-64
2022/01/02 01:16:03;;;;;;;28.55;3.78;;;;;;;-149.78;100.00;50494.91;5116451;28;20142;-64
2022/01/02 01:18:29;;;;;;;20.02;3.42;;;;;;;-149.78;100.00;50440.16;5116696;28;20036;-64
2022/01/02 01:20:55;;;;;;;25.00;3.75;;;;;;;-149.78;100.00;50455.81;5116549;28;20071;-67
2022/01/02 01:23:21;;;;;;;18.65;3.78;;;;;;;-149.78;100.00;50459.72;5114957;28;20027;-67
2022/01/02 01:25:49;;;;;;;23.95;4.05;;;;;;;-149.78;100.00;50432.31;5097793;28;20067;-67
2022/01/02 01:28:17;;;;;;;25.90;4.40;;;;;;;-149.78;100.00;50498.81;5116342;28;20036;-67
2022/01/02 01:30:43;;;;;;;23.08;4.32;;;;;;;-149.78;100.00;50475.34;5116105;28;20045;-64
2022/01/02 01:33:09;;;;;;;17.27;3.22;;;;;;;-149.78;100.00;50455.81;5097983;28;20039;-64
2022/01/02 01:35:34;;;;;;;32.33;3.97;;;;;;;-149.78;100.00;50455.81;5115819;28;20047;-64
2022/01/02 01:38:01;;;;;;;26.83;4.20;;;;;;;-149.78;100.00;50440.16;5115596;28;20169;-64
2022/01/02 01:40:30;;;;;;;25.65;5.63;;;;;;;-149.78;100.00;50463.63;5115607;28;20042;-64
2022/01/02 01:43:01;;;;;;;28.95;4.38;;;;;;;-149.78;100.00;50463.63;5115646;28;20168;-64
2022/01/02 01:45:30;;;;;;;28.60;5.25;;;;;;;-149.78;100.00;50459.72;5115507;28;20470;-64
2022/01/02 01:48:04;;;;;;;26.20;4.15;;;;;;;-149.78;100.00;50471.44;5115431;28;20036;-64
2022/01/02 01:50:32;;;;;;;30.40;4.93;;;;;;;-149.78;100.00;50432.31;5097570;28;20051;-63
2022/01/02 01:52:59;;;;;;;21.00;5.10;;;;;;;-149.78;100.00;50455.81;5115568;28;20034;-64
2022/01/02 01:55:25;;;;;;;24.40;5.03;;;;;;;-149.78;100.00;50467.53;5097410;28;20498;-64
2022/01/02 01:57:52;;;;;;;21.98;4.70;;;;;;;-149.78;100.00;50477.31;5115416;28;20039;-64
2022/01/02 02:00:20;;;;;;;28.08;5.93;;;;;;;-149.78;100.00;50467.53;5115535;28;20047;-67
2022/01/02 02:02:45;;;;;;;32.95;5.78;;;;;;;-149.78;100.00;50469.50;5115034;28;20039;-67
2022/01/02 02:05:12;;;;;;;29.40;5.25;;;;;;;-149.78;100.00;50475.34;5114921;28;20047;-67
2022/01/02 02:07:44;;;;;;;25.80;5.13;;;;;;;-149.78;100.00;50459.72;5114305;28;20115;-67
2022/01/02 02:10:34;;;;;;;31.85;5.93;;;;;;;-149.78;100.00;50414.72;5115034;28;20036;-63
2022/01/02 02:13:03;;;;;;;24.58;4.82;;;;;;;-149.78;100.00;50459.72;5113382;28;20016;-64
2022/01/02 02:15:29;;;;;;;24.13;4.82;;;;;;;-149.78;100.00;50473.41;5114916;28;20126;-64
2022/01/02 02:17:54;;;;;;;28.42;5.35;;;;;;;-149.78;100.00;50463.63;5115087;28;20522;-64
2022/01/02 02:20:31;;;;;;;26.80;4.72;;;;;;;-149.78;100.00;50447.97;5097221;28;20062;-64
2022/01/02 02:22:58;;;;;;;21.30;5.07;;;;;;;-149.78;100.00;50406.91;5114923;28;20031;-64
2022/01/02 02:25:27;;;;;;;38.80;5.53;;;;;;;-149.78;100.00;50455.81;5097051;28;20077;-64
2022/01/02 02:28:13;;;;;;;33.08;5.68;;;;;;;-149.78;100.00;50471.44;5114051;28;20035;-63
2022/01/02 02:30:43;;;;;;;26.50;5.55;;;;;;;-149.78;100.00;50475.34;5115007;28;20101;-64
2022/01/02 02:33:10;;;;;;;36.38;5.32;;;;;;;-149.78;100.00;50459.72;5114863;28;20036;-64
2022/01/02 02:35:37;;;;;;;26.70;5.75;;;;;;;-149.78;100.00;50491.00;5114467;28;20042;-63
2022/01/02 02:38:09;;;;;;;24.17;5.50;;;;;;;-149.78;100.00;50451.88;5114974;28;20039;-64
2022/01/02 02:40:37;;;;;;;28.23;5.70;;;;;;;-149.78;100.00;50440.16;5114921;28;20032;-64
2022/01/02 02:43:09;;;;;;;41.33;5.97;;;;;;;-149.78;100.00;50471.44;5114672;28;20371;-64
2022/01/02 02:51:13;;;;;;;33.83;5.70;;;;;;;-149.78;100.00;50459.72;5096404;28;20420;-64
2022/01/02 02:53:42;;;;;;;25.20;6.13;;;;;;;-149.78;100.00;50455.81;5114623;28;20069;-64
2022/01/02 02:56:19;;;;;;;32.22;5.68;;;;;;;-149.78;100.00;50471.44;5114472;28;20420;-64
2022/01/02 02:58:49;;;;;;;37.13;7.28;;;;;;;-149.78;100.00;50440.16;5114505;28;20054;-64
2022/01/02 03:01:18;;;;;;;37.08;6.93;;;;;;;-149.78;100.00;50455.81;5114410;28;20382;-64
2022/01/02 03:03:45;;;;;;;28.10;5.95;;;;;;;-149.78;100.00;50471.44;5114349;28;20160;-64
2022/01/02 03:06:12;;;;;;;40.13;6.45;;;;;;;-149.78;100.00;50485.13;5114356;28;20469;-64
2022/01/02 03:08:38;;;;;;;31.38;5.65;;;;;;;-149.78;100.00;50467.53;5114526;28;20043;-64
2022/01/02 03:11:08;;;;;;;25.73;5.05;;;;;;;-149.78;100.00;50487.09;5114265;28;20039;-64
2022/01/02 03:13:36;;;;;;;42.10;6.53;;;;;;;-149.78;100.00;50432.31;5114401;28;20051;-63
2022/01/02 03:16:02;;;;;;;27.63;5.70;;;;;;;-149.78;100.00;50506.66;5114069;28;20043;-64
2022/01/02 03:18:27;;;;;;;25.65;5.78;;;;;;;-149.78;100.00;50447.97;5114173;28;20390;-64
2022/01/02 03:20:53;;;;;;;44.00;8.65;;;;;;;-149.78;100.00;50459.72;5113887;28;20030;-64
2022/01/02 03:23:19;;;;;;;27.33;5.57;;;;;;;-149.78;100.00;50475.34;5095631;28;20050;-64
2022/01/02 03:25:44;;;;;;;34.03;6.43;;;;;;;-149.78;100.00;50447.97;5114004;28;20046;-64
2022/01/02 03:28:10;;;;;;;34.75;6.07;;;;;;;-149.78;100.00;50451.88;5114159;28;20043;-64
2022/01/02 03:30:36;;;;;;;36.47;5.65;;;;;;;-149.78;100.00;50463.63;5113811;28;20379;-64
2022/01/02 03:33:02;;;;;;;21.00;5.70;;;;;;;-149.78;100.00;50467.53;5095601;28;20036;-64
2022/01/02 03:35:27;;;;;;;25.92;5.53;;;;;;;-149.78;100.00;50412.78;5113617;28;20034;-64
2022/01/02 03:37:53;;;;;;;25.20;5.57;;;;;;;-149.78;100.00;50455.81;5113772;28;20435;-64
2022/01/02 03:40:19;;;;;;;37.10;6.22;;;;;;;-149.78;100.00;50467.53;5113841;28;20039;-63
2022/01/02 03:42:45;;;;;;;26.67;5.32;;;;;;;-149.78;100.00;50449.94;5113500;28;20043;-64
2022/01/02 03:45:11;;;;;;;35.90;6.55;;;;;;;-149.78;100.00;50475.34;5113142;28;20043;-64
2022/01/02 03:47:39;;;;;;;28.55;5.50;;;;;;;-149.78;100.00;50487.09;5112863;28;20483;-63
2022/01/02 03:50:06;;;;;;;30.48;6.45;;;;;;;-149.78;100.00;50477.31;5113142;28;20130;-63
2022/01/02 03:52:31;;;;;;;29.20;6.00;;;;;;;-149.78;100.00;50467.53;5113188;28;20063;-63
2022/01/02 03:54:58;;;;;;;33.67;6.93;;;;;;;-149.78;100.00;50494.91;5113224;28;20070;-64
2022/01/02 03:57:24;;;;;;;36.05;5.65;;;;;;;-149.78;100.00;50463.63;5110964;28;20038;-63
2022/01/02 03:59:49;;;;;;;33.00;6.00;;;;;;;-149.78;100.00;50432.31;5112657;28;20040;-63
2022/01/02 04:02:16;;;;;;;26.52;5.63;;;;;;;-149.78;100.00;50463.63;5112707;28;20118;-63
2022/01/02 04:04:42;;;;;;;23.50;5.63;;;;;;;-149.78;100.00;50469.50;5112939;28;20107;-63
2022/01/02 04:07:08;;;;;;;27.73;5.88;;;;;;;-149.78;100.00;50502.75;5112724;28;20793;-63
2022/01/02 04:09:34;;;;;;;34.65;6.38;;;;;;;-149.78;100.00;50463.63;5113056;28;20031;-63
2022/01/02 04:12:00;;;;;;;29.15;6.22;;;;;;;-149.78;100.00;50465.56;5113139;28;20038;-63
2022/01/02 04:14:27;;;;;;;25.65;6.00;;;;;;;-149.78;100.00;50469.50;5113097;28;20038;-63
2022/01/02 04:17:00;;;;;;;28.48;6.55;;;;;;;-149.78;100.00;50475.34;5093013;28;20047;-63
2022/01/02 04:19:26;;;;;;;29.42;4.95;;;;;;;-149.78;100.00;50479.28;5112432;28;20398;-63
2022/01/02 04:21:52;;;;;;;33.33;5.20;;;;;;;-149.78;100.00;50432.31;5113097;28;20042;-63
2022/01/02 04:24:18;;;;;;;33.30;5.80;;;;;;;-149.78;100.00;50453.84;5113250;28;20035;-63
2022/01/02 04:26:44;;;;;;;25.05;4.70;;;;;;;-149.78;100.00;50434.28;5113203;28;20055;-64
2022/01/02 04:29:09;;;;;;;32.42;5.45;;;;;;;-149.78;100.00;50487.09;5113321;28;20039;-63
2022/01/02 04:31:35;;;;;;;23.50;3.92;;;;;;;-149.78;100.00;50498.81;5113229;28;20114;-63
2022/01/02 04:34:01;;;;;;;21.92;3.72;;;;;;;-149.78;100.00;50475.34;5113126;28;20084;-63
2022/01/02 04:36:26;;;;;;;19.10;3.80;;;;;;;-149.78;100.00;50436.25;5113340;28;20035;-63
2022/01/02 04:38:52;;;;;;;13.60;2.65;;;;;;;-149.78;100.00;50510.56;5113271;28;20558;-63
2022/01/02 04:41:18;;;;;;;20.13;2.90;;;;;;;-149.78;100.00;50483.19;5113272;28;20127;-63
2022/01/02 04:43:43;;;;;;;11.23;2.28;;;;;;;-149.78;100.00;50471.44;5113184;28;20035;-62
2022/01/02 04:46:09;;;;;;;13.05;2.47;;;;;;;-149.78;100.00;50487.09;5113178;28;20112;-63
2022/01/02 04:48:34;;;;;;;10.02;2.03;;;;;;;-149.78;100.00;50455.81;5111648;28;20489;-68
2022/01/02 04:51:00;;;;;;;7.22;1.40;;;;;;;-149.78;100.00;50459.72;5112392;28;20043;-68
2022/01/02 04:53:26;;;;;;;9.95;1.77;;;;;;;-149.78;100.00;50510.56;5113219;28;20059;-67
2022/01/02 04:55:51;;;;;;;8.60;1.77;;;;;;;-149.78;100.00;50471.44;5113126;28;20059;-67
2022/01/02 04:58:18;;;;;;;10.10;1.65;;;;;;;-149.78;100.00;50506.66;5115614;28;20043;-67
2022/01/02 05:00:44;;;;;;;6.05;1.40;;;;;;;-149.78;100.00;50483.19;5114669;28;20088;-67
2022/01/02 05:03:09;;;;;;;12.00;1.60;;;;;;;-149.78;100.00;50479.28;5116460;28;20032;-63
2022/01/02 05:05:35;;;;;;;5.85;1.25;;;;;;;-149.78;100.00;50473.41;5116000;28;20054;-63
2022/01/02 05:08:00;;;;;;;17.42;1.63;;;;;;;-149.78;100.00;50483.19;5097915;28;20160;-63
2022/01/02 05:10:26;;;;;;;8.13;1.55;;;;;;;-149.78;100.00;50496.88;5116314;28;20027;-62
2022/01/02 05:12:53;;;;;;;13.50;1.83;;;;;;;-149.78;100.00;50510.56;5116306;28;20043;-63
2022/01/02 05:15:18;;;;;;;5.72;1.58;;;;;;;-149.78;100.00;50487.09;5116082;28;20044;-62
2022/01/02 05:17:44;;;;;;;9.93;1.40;;;;;;;-149.78;100.00;50494.91;5116166;28;20024;-63
2022/01/02 05:20:10;;;;;;;13.00;1.73;;;;;;;-149.78;100.00;50469.50;5116181;28;20538;-67
2022/01/02 05:22:36;;;;;;;8.82;1.50;;;;;;;-149.78;100.00;50498.81;5116033;28;20044;-67
2022/01/02 05:25:02;;;;;;;9.15;1.52;;;;;;;-149.78;100.00;50463.63;5116140;28;20171;-67
2022/01/02 05:27:28;;;;;;;9.10;1.77;;;;;;;-149.78;100.00;50463.63;5116373;28;20531;-67
2022/01/02 05:29:53;;;;;;;9.65;1.40;;;;;;;-149.78;100.00;50467.53;5116159;28;20190;-62
2022/01/02 05:32:19;;;;;;;12.45;1.80;;;;;;;-149.78;100.00;50487.09;5115907;28;20364;-62
2022/01/02 05:34:45;;;;;;;12.10;3.05;;;;;;;-149.78;100.00;50467.53;5115865;28;20347;-67
2022/01/02 05:37:10;;;;;;;10.38;1.45;;;;;;;-149.78;100.00;50471.44;5098141;28;20470;-63
2022/01/02 05:39:36;;;;;;;9.35;1.83;;;;;;;-149.78;100.00;50506.66;5098006;28;20042;-62
2022/01/02 05:42:03;;;;;;;6.60;1.73;;;;;;;-149.78;100.00;50475.34;5116023;28;20458;-62
2022/01/02 05:44:30;;;;;;;13.73;1.83;;;;;;;-149.78;100.00;50487.09;5097770;28;20084;-63
2022/01/02 05:46:57;;;;;;;11.82;1.50;;;;;;;-149.78;100.00;50459.72;5115727;28;20472;-67
2022/01/02 05:49:22;;;;;;;11.07;1.92;;;;;;;-149.78;100.00;50475.34;5097590;28;20466;-67
2022/01/02 05:51:48;;;;;;;14.93;2.00;;;;;;;-149.78;100.00;50483.19;5115687;28;20034;-67
2022/01/02 05:54:14;;;;;;;11.02;1.92;;;;;;;-149.78;100.00;50485.13;5115725;28;20092;-62
2022/01/02 05:56:39;;;;;;;7.68;1.70;;;;;;;-149.78;100.00;50475.34;5080689;28;20135;-62
2022/01/02 05:59:06;;;;;;;13.75;2.60;;;;;;;-149.78;100.00;50463.63;5115516;28;20500;-62
2022/01/02 06:01:31;;;;;;;7.43;2.47;;;;;;;-149.78;100.00;50447.97;5115768;28;20074;-62
2022/01/02 06:03:57;;;;;;;9.10;1.90;;;;;;;-149.78;100.00;50473.41;5115327;28;20040;-62
2022/01/02 06:06:23;;;;;;;10.48;1.55;;;;;;;-149.78;100.00;50471.44;5115344;28;20031;-62
2022/01/02 06:08:49;;;;;;;8.63;1.70;;;;;;;-149.78;100.00;50487.09;5114633;28;20032;-63
2022/01/02 06:11:14;;;;;;;12.27;2.13;;;;;;;-149.78;100.00;50475.34;5115356;28;20059;-62
2022/01/02 06:13:40;;;;;;;8.70;1.50;;;;;;;-149.78;100.00;50471.44;5115545;28;20352;-62
2022/01/02 06:16:07;;;;;;;8.60;1.63;;;;;;;-149.78;100.00;50494.91;5115312;28;20055;-62
2022/01/02 06:18:33;;;;;;;8.27;1.45;;;;;;;-149.78;100.00;50475.34;5115619;28;20035;-62
2022/01/02 06:20:59;;;;;;;5.72;1.50;;;;;;;-149.78;100.00;50498.81;5115210;28;20370;-62
2022/01/02 06:23:25;;;;;;;6.43;1.42;;;;;;;-149.78;100.00;50491.00;5115158;28;20039;-63
2022/01/02 06:25:51;;;;;;;5.45;1.15;;;;;;;-149.78;100.00;50502.75;5114977;28;20040;-62
2022/01/02 06:28:19;;;;;;;11.93;1.77;;;;;;;-149.78;100.00;50506.66;5115032;28;20359;-62
2022/01/02 06:30:45;;;;;;;3.00;0.95;;;;;;;-149.78;100.00;50494.91;5096672;28;20046;-63
2022/01/02 06:33:10;;;;;;;4.72;1.67;;;;;;;-149.78;100.00;50491.00;5115141;28;20038;-62
2022/01/02 06:35:36;;;;;;;9.55;1.08;;;;;;;-149.78;100.00;50475.34;5096986;28;20043;-62
2022/01/02 06:38:20;;;;;;;5.60;1.02;;;;;;;-149.78;100.00;50485.13;5114932;28;20039;-63
2022/01/02 06:40:46;;;;;;;3.22;1.05;;;;;;;-149.78;100.00;50475.34;5114837;28;20112;-63
2022/01/02 06:43:13;;;;;;;2.28;0.90;;;;;;;-149.78;100.00;50494.91;5114827;28;20374;-62
2022/01/02 06:45:39;;;;;;;1.85;0.90;;;;;;;-149.78;100.00;50487.09;5114752;28;20032;-63
2022/01/02 06:48:05;;;;;;;6.47;1.23;;;;;;;-149.78;100.00;50526.22;5096755;28;20038;-63
2022/01/02 06:50:32;;;;;;;4.50;2.10;;;;;;;-149.78;100.00;50459.72;5079611;28;20059;-63
2022/01/02 06:52:57;;;;;;;3.08;0.88;;;;;;;-149.78;100.00;50491.00;5114559;28;20084;-63
2022/01/02 06:55:23;;;;;;;8.05;2.03;;;;;;;-149.78;100.00;50491.00;5114490;28;20047;-63
2022/01/02 06:57:49;;;;;;;5.05;0.80;;;;;;;-149.78;100.00;50502.75;5114537;28;20485;-63
2022/01/02 07:00:15;;;;;;;3.92;0.63;;;;;;;-149.78;100.00;50502.75;5114544;28;20034;-63
2022/01/02 07:02:41;;;;;;;3.70;0.75;;;;;;;-149.78;100.00;50483.19;5096114;28;20457;-64
2022/01/02 07:05:08;;;;;;;4.63;0.50;;;;;;;-149.78;100.00;50481.22;5096427;28;20046;-63
2022/01/02 07:07:42;;;;;;;4.05;0.93;;;;;;;-149.78;100.00;50483.19;5114379;28;20055;-63
2022/01/02 07:10:10;;;;;;;2.58;0.75;;;;;;;-149.78;100.00;50534.03;5114282;28;20466;-63
2022/01/02 07:12:36;;;;;;;1.25;0.52;;;;;;;-149.78;100.00;50481.22;5114272;28;20031;-62
2022/01/02 07:15:03;;;;;;;4.53;0.80;;;;;;;-149.78;100.00;50483.19;5114015;28;20092;-63
2022/01/02 07:17:28;;;;;;;3.72;0.70;;;;;;;-149.78;100.00;50467.53;5114368;28;20462;-62
2022/01/02 07:19:54;;;;;;;3.05;0.90;;;;;;;-149.78;100.00;50483.19;5114083;28;20039;-63
2022/01/02 07:22:19;;;;;;;2.25;0.80;;;;;;;-149.78;100.00;50483.19;5114068;28;20049;-63
2022/01/02 07:24:50;;;;;;;6.45;2.08;;;;;;;-149.78;100.00;50557.50;5113882;28;20114;-63
2022/01/02 07:27:16;;;;;;;3.40;0.88;;;;;;;-149.78;100.00;50512.50;5113934;28;20047;-63
2022/01/02 07:29:42;;;;;;;6.65;0.80;;;;;;;-149.78;100.00;50506.66;5113981;28;20039;-63
2022/01/02 07:32:07;;;;;;;7.32;0.95;;;;;;;-149.78;100.00;50502.75;5114011;28;20035;-63
2022/01/02 07:34:34;;;;;;;2.45;0.85;;;;;;;-149.78;100.00;50487.09;5114045;28;20416;-62
2022/01/02 07:37:00;;;;;;;4.95;1.00;;;;;;;-149.78;100.00;50491.00;5113918;28;20032;-63
2022/01/02 07:39:25;;;;;;;3.28;0.70;;;;;;;-149.78;100.00;50500.78;5113927;28;20458;-63
2022/01/02 07:41:51;;;;;;;4.35;1.40;;;;;;;-149.78;100.00;50530.13;5113817;28;20036;-63
2022/01/02 07:44:16;;;;;;;3.83;0.85;;;;;;;-149.78;100.00;50494.91;5113822;28;20043;-63
2022/01/02 07:46:42;;;;;;;9.55;0.90;;;;;;;-149.78;100.00;50510.56;5113690;28;20039;-63
2022/01/02 07:49:07;;;;;;;3.65;0.80;;;;;;;-149.78;100.00;50520.34;5113634;28;20038;-63
2022/01/02 07:51:33;;;;;;;7.03;0.85;;;;;;;-149.78;100.00;50522.28;5113766;28;20055;-62
2022/01/02 07:54:00;;;;;;;1.42;0.60;;;;;;;-149.78;100.00;50510.56;5113732;28;20459;-63
2022/01/02 07:56:27;;;;;;;7.68;1.10;;;;;;;-149.78;100.00;50477.31;5113908;28;20115;-62
2022/01/02 07:58:54;;;;;;;3.72;0.60;;;;;;;-149.78;100.00;50491.00;5095488;28;20363;-62
2022/01/02 08:01:20;;;;;;;3.55;1.00;;;;;;;-149.78;100.00;50498.81;5095747;28;20058;-63
2022/01/02 08:03:45;;;;;;;1.90;0.60;;;;;;;-149.78;100.00;50510.56;5113403;28;20059;-62
2022/01/02 08:06:11;;;;;;;2.88;0.80;;;;;;;-149.78;100.00;50496.88;5095458;28;20524;-63
2022/01/02 08:08:37;;;;;;;5.07;0.80;;;;;;;-149.78;100.00;50506.66;5113396;28;20031;-63
2022/01/02 08:11:02;;;;;;;2.95;0.77;;;;;;;-149.78;100.00;50510.56;5113575;28;20498;-63
2022/01/02 08:13:28;;;;;;;5.25;0.80;;;;;;;-149.78;100.00;50518.38;5113685;28;20490;-63
2022/01/02 08:15:54;;;;;;;6.60;1.90;;;;;;;-149.78;100.00;50498.81;5113351;28;20394;-63
2022/01/02 08:18:20;;;;;;;4.80;0.77;;;;;;;-149.78;100.00;50522.28;5094204;28;20493;-63
2022/01/02 08:20:46;;;;;;;3.05;0.60;;;;;;;-149.78;100.00;50487.09;5113282;28;20096;-63
2022/01/02 08:23:14;;;;;;;3.63;0.47;;;;;;;-149.78;100.00;50494.91;5094829;28;20036;-63
2022/01/02 08:25:39;;;;;;;2.60;0.55;;;;;;;-149.78;100.00;50506.66;5113109;28;20421;-63
2022/01/02 08:28:05;;;;;;;3.83;0.55;;;;;;;-149.78;100.00;50504.69;5112835;28;20084;-63
2022/01/02 08:30:31;;;;;;;2.97;0.77;;;;;;;-149.78;100.00;50512.50;5113032;28;20042;-63
2022/01/02 08:32:57;;;;;;;6.63;0.68;;;;;;;-149.78;100.00;50532.06;5114925;28;20383;-63
2022/01/02 08:35:23;;;;;;;1.17;0.60;;;;;;;-149.78;100.00;50524.25;5116806;28;20100;-63
2022/01/02 08:37:49;;;;;;;5.00;0.75;;;;;;;-149.78;100.00;50475.34;5116828;28;20498;-63
2022/01/02 08:40:16;;;;;;;3.83;0.63;;;;;;;-149.78;100.00;50471.44;5116687;28;20043;-63
2022/01/02 08:42:43;;;;;;;4.25;0.82;;;;;;;-149.78;100.00;50530.13;5098334;28;20367;-67
2022/01/02 08:45:09;;;;;;;4.07;0.70;;;;;;;-149.78;100.00;50510.56;5116857;28;20046;-67
2022/01/02 08:47:35;;;;;;;4.85;0.85;;;;;;;-149.78;100.00;50498.81;5116837;28;20123;-67
2022/01/02 08:50:01;;;;;;;1.75;0.80;;;;;;;-149.78;100.00;50508.59;5117053;28;20391;-67
2022/01/02 08:52:27;;;;;;;1.90;0.60;;;;;;;-149.78;100.00;50483.19;5116933;28;20061;-67
2022/01/02 08:54:54;;;;;;;4.35;0.70;;;;;;;-149.78;100.00;50530.13;5117031;28;20027;-67
2022/01/02 08:57:20;;;;;;;3.45;0.68;;;;;;;-149.78;100.00;50512.50;5116952;28;20427;-67
2022/01/02 08:59:46;;;;;;;4.38;0.93;;;;;;;-149.78;100.00;50506.66;5116891;28;20032;-67
2022/01/02 09:02:11;;;;;;;6.63;1.02;;;;;;;-149.78;100.00;50518.38;5116792;28;20032;-67
2022/01/02 09:04:37;;;;;;;3.97;1.00;;;;;;;-149.78;100.00;50526.22;5116597;28;20039;-67
2022/01/02 09:07:03;;;;;;;6.20;3.08;;;;;;;-149.78;100.00;50506.66;5116679;28;20105;-67
2022/01/02 09:09:29;;;;;;;6.00;1.48;;;;;;;-149.78;100.00;50541.84;5116644;28;20475;-67
2022/01/02 09:11:55;;;;;;;9.75;1.30;;;;;;;-149.78;100.00;50518.38;5116647;28;20043;-67
2022/01/02 09:14:20;;;;;;;6.53;1.52;;;;;;;-149.78;100.00;50535.97;5116543;28;20533;-67
2022/01/02 09:16:46;;;;;;;4.63;1.38;;;;;;;-149.78;100.00;50483.19;5116368;28;20096;-67
2022/01/02 09:19:12;;;;;;;3.53;1.20;;;;;;;-149.78;100.00;50483.19;5098371;28;20042;-67
2022/01/02 09:21:38;;;;;;;2.95;1.20;;;;;;;-149.78;100.00;50510.56;5116353;28;20043;-67
2022/01/02 09:24:05;;;;;;;6.25;1.25;;;;;;;-149.78;100.00;50467.53;5116225;28;20078;-67
2022/01/02 09:26:30;;;;;;;3.67;1.20;;;;;;;-149.78;100.00;50498.81;5098071;28;20089;-67
2022/01/02 09:28:56;;;;;;;9.88;1.52;;;;;;;-149.78;100.00;50489.03;5116115;28;20043;-67
2022/01/02 09:31:22;;;;;;;6.32;1.00;;;;;;;-149.78;100.00;50487.09;5098054;28;20039;-67
2022/01/02 09:33:48;;;;;;;10.38;1.40;;;;;;;-149.78;100.00;50491.00;5116057;28;20055;-67
2022/01/02 09:36:17;;;;;;;7.15;1.27;;;;;;;-149.78;100.00;50510.56;5116062;28;20505;-67
2022/01/02 09:38:43;;;;;;;3.25;1.33;;;;;;;-149.78;100.00;50502.75;5116060;28;20648;-67
2022/01/02 09:41:09;;;;;;;8.20;1.30;;;;;;;-149.78;100.00;50491.00;5097900;28;20039;-67
2022/01/02 09:43:35;;;;;;;3.92;1.23;;;;;;;-149.78;100.00;50473.41;5096102;28;20550;-67
2022/01/02 09:46:03;;;;;;;6.47;1.60;;;;;;;-149.78;100.00;50516.44;5115921;28;20047;-67
2022/01/02 09:48:29;;;;;;;7.00;1.60;;;;;;;-149.78;100.00;50471.44;5115826;28;20032;-63
2022/01/02 09:50:56;;;;;;;7.72;1.55;;;;;;;-149.78;100.00;50518.38;5097665;28;20114;-63
2022/01/02 09:53:22;;;;;;;7.75;2.05;;;;;;;-149.78;100.00;50498.81;5097663;28;20030;-63
2022/01/02 09:55:49;;;;;;;9.27;1.33;;;;;;;-149.78;100.00;50510.56;5097773;28;20382;-63
2022/01/02 09:58:15;;;;;;;9.15;1.50;;;;;;;-149.78;100.00;50504.69;5115762;28;20031;-63
2022/01/02 10:00:44;;;;;;;7.10;1.30;;;;;;;-149.78;100.00;50491.00;5115693;28;20024;-63
2022/01/02 10:03:11;;;;;;;6.47;1.27;;;;;;;-149.78;100.00;50502.75;5115490;28;20031;-63
2022/01/02 10:05:57;;;;;;;7.78;1.35;;;;;;;-149.78;100.00;50498.81;5115537;28;20023;-63
2022/01/02 10:08:26;;;;;;;11.45;1.35;;;;;;;-149.78;100.00;50479.28;5115469;28;20463;-63
2022/01/02 10:11:24;;;;;;;6.93;1.80;;;;;;;-149.78;100.00;50494.91;5115581;28;20053;-62
2022/01/02 10:14:01;;;;;;;7.07;1.42;;;;;;;-149.78;100.00;50491.00;5114842;28;20104;-63
2022/01/02 10:16:32;;;;;;;8.73;1.50;;;;;;;-149.78;100.00;50510.56;5097133;28;20047;-63
2022/01/02 10:19:18;;;;;;;9.60;1.20;;;;;;;-149.78;100.00;50489.03;5115187;28;20036;-63
2022/01/02 10:21:51;;;;;;;6.40;1.33;;;;;;;-149.78;100.00;50483.19;5096667;28;20370;-63
2022/01/02 10:24:22;;;;;;;3.05;1.20;;;;;;;-149.78;100.00;50492.97;5115196;28;20391;-63
2022/01/02 10:27:08;;;;;;;11.07;1.23;;;;;;;-149.78;100.00;50506.66;5115089;28;20032;-63
2022/01/02 10:29:40;;;;;;;9.48;1.52;;;;;;;-149.78;100.00;50491.00;5115199;28;20252;-63
2022/01/02 10:32:30;;;;;;;3.97;1.20;;;;;;;-149.78;100.00;50496.88;5080087;28;20083;-63
2022/01/02 10:35:28;;;;;;;13.15;1.20;;;;;;;-149.78;100.00;50455.81;5114911;28;20040;-63
2022/01/02 10:37:56;;;;;;;6.25;1.42;;;;;;;-149.78;100.00;50514.47;5080551;28;20047;-63
2022/01/02 10:40:39;;;;;;;6.85;1.27;;;;;;;-149.78;100.00;50491.00;5114891;28;20524;-63
2022/01/02 10:43:07;;;;;;;10.30;1.58;;;;;;;-149.78;100.00;50494.91;5114669;28;20116;-63
2022/01/02 10:45:34;;;;;;;8.57;1.20;;;;;;;-149.78;100.00;50498.81;5114940;28;20478;-63
2022/01/02 10:48:02;;;;;;;11.15;1.75;;;;;;;-149.78;100.00;50498.81;5114841;28;20434;-63
2022/01/02 10:50:28;;;;;;;12.20;1.75;;;;;;;-149.78;100.00;50528.16;5114868;28;20440;-63
2022/01/02 10:52:54;;;;;;;5.85;1.27;;;;;;;-149.78;100.00;50483.19;5114586;28;20135;-63
2022/01/02 10:55:23;;;;;;;6.75;1.30;;;;;;;-149.78;100.00;50483.19;5114303;28;20395;-63
2022/01/02 10:57:51;;;;;;;13.40;1.80;;;;;;;-149.78;100.00;50502.75;5096480;28;20085;-63
2022/01/02 11:00:19;;;;;;;10.23;1.42;;;;;;;-149.78;100.00;50487.09;5114641;28;20031;-63
2022/01/02 11:02:45;;;;;;;8.45;1.92;;;;;;;-149.78;100.00;50465.56;5096345;28;20111;-63
2022/01/02 11:05:13;;;;;;;9.98;1.55;;;;;;;-149.78;100.00;50479.28;5114321;28;20038;-63
2022/01/02 11:07:48;;;;;;;12.02;1.63;;;;;;;-149.78;100.00;50479.28;5114242;28;20063;-63
2022/01/02 11:10:17;;;;;;;8.18;1.00;;;;;;;-149.78;100.00;50508.59;5096144;28;20031;-63
2022/01/02 11:12:44;;;;;;;6.47;1.20;;;;;;;-149.78;100.00;50471.44;5114141;28;20051;-63